Time;durP1;ratioP1;P1;durP2;ratioP2;P2;SDS_P1;SDS_P2;PMS_P1;PMS_P2;Temp;Humidity;BMP_temperature;BMP_pressure;BME280_temperature;BME280_humidity;BME280_pressure;Samples;Min_cycle;Max_cycle;Signal;HPM_P1;HPM_P2
2022/11/01 00:03:12;;;;;;;10.77;4.95;;;;;;;;;;20997075;28;20092;-60
2022/11/01 00:13:14;;;;;;;10.23;5.47;;;;;;;;;;20997956;28;20154;-60
2022/11/01 00:23:16;;;;;;;9.25;4.82;;;;;;;;;;20998270;28;20056;-60
2022/11/01 00:33:18;;;;;;;10.85;5.07;;;;;;;;;;20997470;28;20420;-62
2022/11/01 00:43:20;;;;;;;10.70;4.72;;;;;;;;;;20995641;28;20057;-60
2022/11/01 00:53:22;;;;;;;11.93;4.78;;;;;;;;;;20995504;28;20168;-61
2022/11/01 01:03:24;;;;;;;8.35;4.70;;;;;;;;;;20999268;28;20048;-61
2022/11/01 01:13:26;;;;;;;11.13;4.95;;;;;;;;;;21022384;28;20088;-61
2022/11/01 01:23:28;;;;;;;12.27;5.60;;;;;;;;;;21023625;28;20049;-63
2022/11/01 01:33:31;;;;;;;11.15;4.75;;;;;;;;;;21021577;28;20057;-61
2022/11/01 01:43:40;;;;;;;8.30;4.57;;;;;;;;;;21021436;28;20082;-61
2022/11/01 01:53:45;;;;;;;7.95;5.00;;;;;;;;;;21021018;28;20053;-60
2022/11/01 02:03:47;;;;;;;7.45;4.95;;;;;;;;;;21021053;28;20092;-61
2022/11/01 02:13:51;;;;;;;7.80;5.15;;;;;;;;;;21020576;28;20105;-62
2022/11/01 02:24:18;;;;;;;13.98;5.55;;;;;;;;;;21006354;28;20052;-62
2022/11/01 02:34:33;;;;;;;7.97;4.68;;;;;;;;;;20832225;28;20065;-62
2022/11/01 02:44:58;;;;;;;7.78;5.38;;;;;;;;;;20831238;28;20057;-63
2022/11/01 02:55:28;;;;;;;12.20;5.85;;;;;;;;;;20830129;28;20053;-61
2022/11/01 03:05:35;;;;;;;12.38;5.90;;;;;;;;;;20883540;28;20356;-63
2022/11/01 03:15:43;;;;;;;10.38;5.47;;;;;;;;;;21004210;28;20045;-63
2022/11/01 03:25:49;;;;;;;11.07;6.00;;;;;;;;;;21001689;28;20059;-61
2022/11/01 03:35:55;;;;;;;10.20;4.80;;;;;;;;;;21002384;28;20067;-61
2022/11/01 03:45:58;;;;;;;10.25;5.35;;;;;;;;;;21000324;28;20080;-63
2022/11/01 03:56:01;;;;;;;12.85;5.32;;;;;;;;;;21000222;28;20056;-62
2022/11/01 04:06:04;;;;;;;12.82;5.85;;;;;;;;;;20998762;28;20060;-60
2022/11/01 04:26:34;;;;;;;10.25;6.22;;;;;;;;;;20997670;28;20053;-65
2022/11/01 04:36:37;;;;;;;9.73;5.93;;;;;;;;;;20997804;28;20048;-62
2022/11/01 04:46:39;;;;;;;11.07;5.95;;;;;;;;;;20997194;28;20055;-59
2022/11/01 04:56:40;;;;;;;10.70;5.85;;;;;;;;;;20996770;28;20048;-61
2022/11/01 05:06:44;;;;;;;12.13;6.38;;;;;;;;;;20997074;28;20052;-63
2022/11/01 05:16:48;;;;;;;11.02;6.18;;;;;;;;;;20996187;28;20053;-62
2022/11/01 05:26:51;;;;;;;13.07;6.50;;;;;;;;;;20995445;28;20101;-62
2022/11/01 05:36:54;;;;;;;16.00;8.48;;;;;;;;;;20995527;28;20044;-62
2022/11/01 05:46:56;;;;;;;10.43;7.18;;;;;;;;;;20993984;28;20060;-62
2022/11/01 05:56:58;;;;;;;11.35;6.70;;;;;;;;;;21007319;28;20680;-63
2022/11/01 06:07:00;;;;;;;11.63;6.65;;;;;;;;;;21008628;28;20049;-62
2022/11/01 06:17:03;;;;;;;14.85;8.27;;;;;;;;;;21007625;28;20091;-63
2022/11/01 06:27:05;;;;;;;14.55;7.72;;;;;;;;;;21007591;28;20044;-63
2022/11/01 06:37:07;;;;;;;14.57;8.38;;;;;;;;;;21006703;28;20383;-62
2022/11/01 06:47:11;;;;;;;18.48;9.35;;;;;;;;;;21005251;28;20044;-61
2022/11/01 06:57:13;;;;;;;15.25;8.70;;;;;;;;;;21004331;28;20083;-63
2022/11/01 07:07:15;;;;;;;15.00;8.90;;;;;;;;;;21003272;28;20155;-61
2022/11/01 07:17:17;;;;;;;12.98;8.10;;;;;;;;;;21003587;28;20416;-60
2022/11/01 07:27:19;;;;;;;14.07;9.07;;;;;;;;;;21003226;28;20480;-62
2022/11/01 07:37:21;;;;;;;18.20;8.57;;;;;;;;;;21001111;28;20076;-61
2022/11/01 07:47:23;;;;;;;13.25;8.95;;;;;;;;;;21000312;28;20091;-62
2022/11/01 07:57:25;;;;;;;16.77;9.32;;;;;;;;;;21000510;28;20045;-62
2022/11/01 08:07:27;;;;;;;15.07;9.70;;;;;;;;;;20999307;28;20076;-63
2022/11/01 08:17:29;;;;;;;18.25;9.88;;;;;;;;;;20998031;28;20507;-62
2022/11/01 08:27:31;;;;;;;15.57;9.68;;;;;;;;;;20997461;28;20139;-62
2022/11/01 08:37:33;;;;;;;16.77;9.73;;;;;;;;;;20996846;28;20052;-61
2022/11/01 08:47:34;;;;;;;14.98;10.73;;;;;;;;;;20996263;28;20094;-60
2022/11/01 08:57:37;;;;;;;20.55;11.07;;;;;;;;;;20995759;28;20083;-61
2022/11/01 09:07:39;;;;;;;18.33;11.82;;;;;;;;;;20995581;28;20052;-62
2022/11/01 09:17:41;;;;;;;20.20;11.73;;;;;;;;;;20996082;28;20040;-62
2022/11/01 09:27:43;;;;;;;15.55;8.70;;;;;;;;;;21001897;28;20250;-60
2022/11/01 09:37:45;;;;;;;12.25;6.72;;;;;;;;;;21010753;28;20076;-61
2022/11/01 09:47:49;;;;;;;12.77;7.40;;;;;;;;;;21009189;28;20057;-60
2022/11/01 09:58:02;;;;;;;11.65;7.07;;;;;;;;;;21009859;28;20549;-61
2022/11/01 10:08:07;;;;;;;12.50;7.70;;;;;;;;;;21007790;28;20057;-61
2022/11/01 10:18:16;;;;;;;13.63;6.80;;;;;;;;;;21007481;28;20420;-64
2022/11/01 10:28:20;;;;;;;10.40;5.63;;;;;;;;;;21006473;28;20052;-62
2022/11/01 10:38:38;;;;;;;12.77;7.50;;;;;;;;;;21003976;28;20049;-62
2022/11/01 10:48:55;;;;;;;12.77;7.43;;;;;;;;;;21005482;28;20075;-62
2022/11/01 10:59:07;;;;;;;10.85;4.60;;;;;;;;;;21005121;28;20426;-61
2022/11/01 11:09:33;;;;;;;4.85;3.42;;;;;;;;;;21004494;28;20485;-61
2022/11/01 11:19:38;;;;;;;3.65;2.70;;;;;;;;;;20828969;28;20100;-59
2022/11/01 11:29:48;;;;;;;5.95;2.40;;;;;;;;;;20827656;28;20113;-62
2022/11/01 11:40:09;;;;;;;4.47;2.22;;;;;;;;;;20826507;28;20132;-61
2022/11/01 11:50:20;;;;;;;5.50;2.90;;;;;;;;;;20868129;28;20047;-62
2022/11/01 12:00:23;;;;;;;2.95;1.70;;;;;;;;;;20999546;28;20063;-61
2022/11/01 12:10:30;;;;;;;5.30;2.38;;;;;;;;;;20998530;28;20051;-64
2022/11/01 12:20:36;;;;;;;3.85;1.35;;;;;;;;;;20998234;28;20048;-61
2022/11/01 12:30:38;;;;;;;2.85;1.30;;;;;;;;;;20996868;28;20339;-62
2022/11/01 12:40:42;;;;;;;4.70;2.00;;;;;;;;;;20996040;28;20053;-62
2022/11/01 12:50:44;;;;;;;2.88;1.23;;;;;;;;;;20994972;28;20056;-62
2022/11/01 13:01:15;;;;;;;3.58;1.30;;;;;;;;;;20993782;28;20059;-62
2022/11/01 13:11:27;;;;;;;3.85;1.90;;;;;;;;;;20986016;28;20105;-62
2022/11/01 13:21:35;;;;;;;5.32;2.00;;;;;;;;;;20995666;28;20079;-61
2022/11/01 13:31:50;;;;;;;3.23;1.23;;;;;;;;;;20995051;28;20210;-62
2022/11/01 13:41:54;;;;;;;2.97;1.48;;;;;;;;;;20994067;28;20048;-62
2022/11/01 13:51:56;;;;;;;3.55;1.27;;;;;;;;;;20993828;28;20044;-62
2022/11/01 14:02:18;;;;;;;4.30;1.27;;;;;;;;;;20992693;28;20408;-61
2022/11/01 14:12:36;;;;;;;5.53;1.50;;;;;;;;;;20996415;28;20056;-62
2022/11/01 14:22:38;;;;;;;2.80;1.35;;;;;;;;;;21006520;28;20047;-62
2022/11/01 14:32:40;;;;;;;2.17;1.23;;;;;;;;;;21006893;28;20053;-61
2022/11/01 14:42:43;;;;;;;2.50;0.80;;;;;;;;;;21004727;28;20053;-61
2022/11/01 14:52:48;;;;;;;2.20;0.77;;;;;;;;;;21003345;28;20048;-60
2022/11/01 15:02:51;;;;;;;2.03;1.45;;;;;;;;;;21003775;28;20131;-60
2022/11/01 15:12:56;;;;;;;5.05;1.20;;;;;;;;;;21003071;28;20056;-61
2022/11/01 15:22:58;;;;;;;4.60;1.25;;;;;;;;;;21000680;28;20057;-61
2022/11/01 15:33:14;;;;;;;2.08;1.10;;;;;;;;;;21000842;28;20428;-60
2022/11/01 15:43:18;;;;;;;7.88;4.30;;;;;;;;;;20999810;28;20183;-61
2022/11/01 15:53:21;;;;;;;2.13;0.52;;;;;;;;;;20998588;28;20053;-62
2022/11/01 16:03:28;;;;;;;2.13;1.20;;;;;;;;;;20998130;28;20052;-62
2022/11/01 16:13:32;;;;;;;2.88;0.77;;;;;;;;;;20997511;28;20083;-62
2022/11/01 16:23:34;;;;;;;1.60;0.90;;;;;;;;;;20997110;28;20056;-62
2022/11/01 16:33:45;;;;;;;1.92;0.77;;;;;;;;;;20995145;28;20044;-61
2022/11/01 16:43:48;;;;;;;10.75;4.55;;;;;;;;;;20995406;28;20091;-61
2022/11/01 16:53:50;;;;;;;2.33;1.00;;;;;;;;;;20996410;28;20055;-62
2022/11/01 17:03:52;;;;;;;5.00;2.10;;;;;;;;;;20995107;28;20586;-61
2022/11/01 17:13:54;;;;;;;3.53;1.40;;;;;;;;;;20994724;28;20049;-61
2022/11/01 17:23:56;;;;;;;2.80;1.33;;;;;;;;;;20995147;28;20502;-62
2022/11/01 17:33:58;;;;;;;3.80;2.40;;;;;;;;;;20994073;28;20052;-62
2022/11/01 17:44:00;;;;;;;10.35;5.00;;;;;;;;;;20993753;28;20451;-63
2022/11/01 17:54:02;;;;;;;5.63;3.53;;;;;;;;;;21008685;28;20045;-61
2022/11/01 18:04:05;;;;;;;10.80;6.13;;;;;;;;;;21008671;28;20071;-63
2022/11/01 18:14:18;;;;;;;7.60;4.38;;;;;;;;;;21009993;28;20466;-61
2022/11/01 18:24:29;;;;;;;9.95;6.05;;;;;;;;;;21007707;28;20048;-62
2022/11/01 18:34:43;;;;;;;9.85;5.05;;;;;;;;;;21007886;28;20084;-62
2022/11/01 18:44:46;;;;;;;8.68;5.63;;;;;;;;;;21007015;28;20056;-64
2022/11/01 18:54:48;;;;;;;17.58;10.57;;;;;;;;;;21004516;28;20401;-61
2022/11/01 19:04:51;;;;;;;5.85;3.63;;;;;;;;;;21002488;28;20072;-62
2022/11/01 19:14:56;;;;;;;9.40;4.13;;;;;;;;;;21002994;28;20052;-64
2022/11/01 19:24:59;;;;;;;9.55;3.95;;;;;;;;;;21000618;28;20535;-63
2022/11/01 19:35:00;;;;;;;10.88;4.18;;;;;;;;;;21002609;28;20572;-63
2022/11/01 19:45:18;;;;;;;9.30;3.17;;;;;;;;;;21000611;28;20380;-62
2022/11/01 19:55:35;;;;;;;6.83;3.90;;;;;;;;;;20999403;28;20049;-63
2022/11/01 20:05:38;;;;;;;9.57;6.10;;;;;;;;;;20998937;28;20053;-64
2022/11/01 20:15:40;;;;;;;7.15;4.22;;;;;;;;;;20997587;28;20076;-63
2022/11/01 20:25:42;;;;;;;12.73;5.88;;;;;;;;;;20998533;28;20472;-63
2022/11/01 20:35:43;;;;;;;9.55;5.72;;;;;;;;;;20997092;28;20059;-63
2022/11/01 20:45:46;;;;;;;9.00;5.55;;;;;;;;;;20996442;28;20612;-63
2022/11/01 20:55:48;;;;;;;6.90;3.50;;;;;;;;;;20995960;28;20045;-62
2022/11/01 21:05:51;;;;;;;5.15;2.60;;;;;;;;;;20995476;28;20511;-63
2022/11/01 21:15:57;;;;;;;14.63;10.32;;;;;;;;;;20995490;28;20462;-62
2022/11/01 21:26:01;;;;;;;7.28;3.00;;;;;;;;;;21004677;28;20052;-63
2022/11/01 21:36:15;;;;;;;4.70;2.67;;;;;;;;;;21011118;28;20099;-62
2022/11/01 21:46:19;;;;;;;7.68;3.35;;;;;;;;;;21009381;28;20052;-62
2022/11/01 21:56:22;;;;;;;4.38;1.80;;;;;;;;;;21008896;28;20493;-62
2022/11/01 22:06:23;;;;;;;3.83;2.22;;;;;;;;;;21008997;28;20496;-63
2022/11/01 22:16:26;;;;;;;3.85;1.67;;;;;;;;;;21007598;28;20097;-63
2022/11/01 22:26:28;;;;;;;3.20;1.70;;;;;;;;;;21006489;28;20078;-64
2022/11/01 22:36:31;;;;;;;4.28;1.70;;;;;;;;;;21005487;28;20068;-62
2022/11/01 22:46:59;;;;;;;2.88;2.00;;;;;;;;;;21004765;28;20129;-61
2022/11/01 22:57:06;;;;;;;2.25;1.52;;;;;;;;;;21003122;28;20341;-61
2022/11/01 23:07:26;;;;;;;3.53;1.70;;;;;;;;;;21004675;28;20210;-61
2022/11/01 23:17:32;;;;;;;4.03;2.22;;;;;;;;;;21004866;28;20477;-64
2022/11/01 23:27:34;;;;;;;3.03;2.00;;;;;;;;;;21002100;28;20098;-64
2022/11/01 23:37:36;;;;;;;5.60;2.33;;;;;;;;;;21001677;28;20048;-62
2022/11/01 23:47:42;;;;;;;4.15;2.00;;;;;;;;;;21000253;28;20067;-60
2022/11/01 23:57:44;;;;;;;4.40;2.20;;;;;;;;;;20999146;28;20078;-62
